Time;durP1;ratioP1;P1;durP2;ratioP2;P2;SDS_P1;SDS_P2;PMS_P1;PMS_P2;Temp;Humidity;BMP_temperature;BMP_pressure;BME280_temperature;BME280_humidity;BME280_pressure;Samples;Min_cycle;Max_cycle;Signal;HPM_P1;HPM_P2
2022/12/30 00:00:50;;;;;;;9.03;2.07;;;6.40;99.90;;;;;;5072859;28;20579;-56
2022/12/30 00:03:17;;;;;;;11.53;1.93;;;6.30;99.90;;;;;;5072686;28;20262;-56
2022/12/30 00:05:44;;;;;;;7.43;1.80;;;6.40;99.90;;;;;;5072474;28;20653;-57
2022/12/30 00:10:51;;;;;;;9.80;2.53;;;6.40;99.90;;;;;;5072299;28;20269;-55
2022/12/30 00:35:18;;;;;;;10.27;2.17;;;6.40;99.90;;;;;;5032097;28;20209;-50
2022/12/30 00:37:45;;;;;;;9.80;2.20;;;6.30;99.90;;;;;;5031926;28;20692;-55
2022/12/30 00:40:12;;;;;;;10.63;2.03;;;6.30;99.90;;;;;;5032341;28;20226;-53
2022/12/30 00:45:25;;;;;;;5.33;2.03;;;6.30;99.90;;;;;;5032468;28;20581;-52
2022/12/30 00:47:53;;;;;;;12.30;1.70;;;6.30;99.90;;;;;;5031278;28;20210;-52
2022/12/30 00:58:32;;;;;;;13.93;2.60;;;6.30;99.90;;;;;;5056887;28;20277;-56
2022/12/30 01:00:59;;;;;;;12.63;2.13;;;6.30;99.90;;;;;;5071943;28;20671;-53
2022/12/30 01:03:27;;;;;;;13.80;1.97;;;6.20;99.90;;;;;;5072007;28;20209;-53
2022/12/30 01:05:54;;;;;;;10.70;2.20;;;6.20;99.90;;;;;;5071668;28;20204;-56
2022/12/30 01:08:21;;;;;;;9.57;2.10;;;6.20;99.90;;;;;;5071822;28;20640;-59
2022/12/30 01:10:47;;;;;;;8.70;2.30;;;6.20;99.90;;;;;;5071721;28;20228;-56
2022/12/30 01:13:14;;;;;;;9.87;2.50;;;6.20;99.90;;;;;;5071543;28;20262;-53
2022/12/30 01:15:41;;;;;;;12.67;2.20;;;6.20;99.90;;;;;;5071758;28;20275;-56
2022/12/30 01:18:07;;;;;;;9.90;2.20;;;6.20;99.90;;;;;;5070397;28;20201;-54
2022/12/30 01:20:37;;;;;;;11.97;2.23;;;6.10;99.90;;;;;;5051512;28;20205;-55
2022/12/30 01:23:04;;;;;;;9.93;1.90;;;6.10;99.90;;;;;;5051375;28;20205;-52
2022/12/30 01:25:31;;;;;;;9.33;1.80;;;6.10;99.90;;;;;;5051306;28;20198;-56
2022/12/30 01:27:58;;;;;;;15.17;2.57;;;6.10;99.90;;;;;;5043078;28;20197;-56
2022/12/30 01:30:24;;;;;;;13.03;2.70;;;6.10;99.90;;;;;;5051241;28;20303;-53
2022/12/30 01:32:51;;;;;;;7.60;2.00;;;6.00;99.90;;;;;;5051563;28;20283;-56
2022/12/30 01:35:18;;;;;;;8.97;1.73;;;6.00;99.90;;;;;;5051415;28;20259;-51
2022/12/30 01:37:46;;;;;;;6.93;1.80;;;6.00;99.90;;;;;;5051080;28;20320;-51
2022/12/30 01:40:13;;;;;;;20.50;2.53;;;6.00;99.90;;;;;;5051213;28;20225;-54
2022/12/30 01:42:42;;;;;;;7.20;1.57;;;6.00;99.90;;;;;;5051530;28;20209;-57
2022/12/30 01:45:20;;;;;;;6.23;1.83;;;6.00;99.90;;;;;;5051438;28;20213;-49
2022/12/30 01:47:52;;;;;;;8.93;1.90;;;6.00;99.90;;;;;;5054005;28;20213;-51
2022/12/30 01:50:29;;;;;;;13.97;1.90;;;6.00;99.90;;;;;;5054942;28;20233;-52
2022/12/30 01:53:02;;;;;;;11.03;2.47;;;6.00;99.90;;;;;;5055049;28;20742;-53
2022/12/30 01:55:33;;;;;;;16.40;2.40;;;6.00;99.90;;;;;;5055120;28;20197;-52
2022/12/30 01:58:04;;;;;;;7.20;1.80;;;5.90;99.90;;;;;;5054748;28;20657;-51
2022/12/30 02:00:31;;;;;;;9.10;1.77;;;5.90;99.90;;;;;;5054900;28;20297;-51
2022/12/30 02:02:58;;;;;;;8.90;1.70;;;5.90;99.90;;;;;;5054824;28;20213;-55
2022/12/30 02:05:28;;;;;;;12.60;2.53;;;6.00;99.90;;;;;;5054943;28;20213;-54
2022/12/30 02:08:03;;;;;;;14.43;1.90;;;6.00;99.90;;;;;;5054909;28;20217;-55
2022/12/30 02:10:31;;;;;;;11.90;2.60;;;5.90;99.90;;;;;;5054828;28;20236;-59
2022/12/30 02:12:58;;;;;;;8.37;1.60;;;6.00;99.90;;;;;;5055002;28;20208;-54
2022/12/30 02:15:27;;;;;;;8.37;1.97;;;6.00;99.90;;;;;;5054752;28;20699;-58
2022/12/30 02:18:05;;;;;;;13.10;2.10;;;5.90;99.90;;;;;;5047419;28;20290;-59
2022/12/30 02:21:07;;;;;;;6.90;1.80;;;5.90;99.90;;;;;;5047081;28;20300;-53
2022/12/30 02:23:50;;;;;;;10.23;2.03;;;5.90;99.90;;;;;;5047268;28;20201;-50
2022/12/30 02:27:04;;;;;;;14.03;2.37;;;5.90;99.90;;;;;;5062671;28;20612;-54
2022/12/30 02:30:05;;;;;;;14.70;1.90;;;5.90;99.90;;;;;;5034378;28;20241;-54
2022/12/30 02:32:42;;;;;;;6.60;1.60;;;5.90;99.90;;;;;;5034614;28;20217;-55
2022/12/30 02:35:19;;;;;;;12.33;2.47;;;5.90;99.90;;;;;;5034838;28;20276;-57
2022/12/30 02:37:53;;;;;;;6.83;2.03;;;5.90;99.90;;;;;;5033860;28;20268;-53
2022/12/30 02:40:25;;;;;;;8.30;1.80;;;5.80;99.90;;;;;;5034158;28;20221;-56
2022/12/30 02:45:47;;;;;;;13.50;2.00;;;5.70;99.90;;;;;;5034260;28;20206;-54
2022/12/30 02:48:18;;;;;;;11.53;2.17;;;5.70;99.90;;;;;;5033506;28;20731;-55
2022/12/30 02:53:36;;;;;;;9.13;2.10;;;5.60;99.90;;;;;;5034104;28;20202;-56
2022/12/30 02:56:04;;;;;;;10.57;2.33;;;5.60;99.90;;;;;;5050627;28;20247;-57
2022/12/30 02:58:33;;;;;;;8.80;2.27;;;5.60;99.90;;;;;;5053654;28;20251;-53
2022/12/30 03:04:09;;;;;;;10.57;2.13;;;5.60;99.90;;;;;;5053820;28;20219;-54
2022/12/30 03:07:01;;;;;;;11.77;2.23;;;5.60;99.90;;;;;;5053440;28;20239;-55
2022/12/30 03:11:12;;;;;;;8.67;1.80;;;5.60;99.90;;;;;;5053429;28;20229;-55
2022/12/30 03:12:42;;;;;;;6.33;2.27;;;5.60;99.90;;;;;;5053544;28;20599;-56
2022/12/30 03:15:15;;;;;;;12.70;2.70;;;5.60;99.90;;;;;;5053634;28;20220;-56
2022/12/30 03:17:43;;;;;;;12.70;2.50;;;5.60;99.90;;;;;;5053370;28;20211;-53
2022/12/30 03:20:15;;;;;;;14.90;2.63;;;5.50;99.90;;;;;;5053092;28;20221;-53
2022/12/30 03:28:16;;;;;;;10.77;1.87;;;5.50;99.90;;;;;;5061273;28;20276;-54
2022/12/30 03:30:45;;;;;;;5.53;1.53;;;5.50;99.90;;;;;;5047269;28;20215;-53
2022/12/30 03:33:13;;;;;;;11.47;1.93;;;5.50;99.90;;;;;;5051266;28;20204;-53
2022/12/30 03:35:48;;;;;;;10.03;1.80;;;5.40;99.90;;;;;;5053157;28;20281;-57
2022/12/30 03:38:18;;;;;;;11.27;2.07;;;5.40;99.90;;;;;;5052602;28;20297;-56
2022/12/30 03:40:46;;;;;;;9.87;2.00;;;5.50;99.90;;;;;;5053075;28;20200;-54
2022/12/30 03:43:14;;;;;;;8.53;1.90;;;5.40;99.90;;;;;;5052383;28;20664;-50
2022/12/30 03:45:41;;;;;;;13.57;2.47;;;5.40;99.90;;;;;;5053072;28;20204;-50
2022/12/30 03:48:08;;;;;;;8.13;2.07;;;5.40;99.90;;;;;;5052760;28;20611;-54
2022/12/30 03:50:34;;;;;;;9.97;2.00;;;5.40;99.90;;;;;;5052721;28;20738;-56
2022/12/30 03:53:02;;;;;;;12.67;2.13;;;5.40;99.90;;;;;;5052796;28;20207;-54
2022/12/30 03:55:29;;;;;;;9.43;2.20;;;5.40;99.90;;;;;;5052663;28;20198;-52
2022/12/30 03:57:56;;;;;;;7.37;1.80;;;5.40;99.90;;;;;;5052526;28;20203;-53
2022/12/30 04:00:23;;;;;;;7.60;1.77;;;5.40;99.90;;;;;;5052952;28;20227;-51
2022/12/30 04:02:49;;;;;;;8.40;2.13;;;5.40;99.90;;;;;;5052558;28;20758;-48
2022/12/30 04:05:16;;;;;;;8.17;2.83;;;5.40;99.90;;;;;;5052697;28;20634;-53
2022/12/30 04:07:43;;;;;;;5.03;1.57;;;5.40;99.90;;;;;;5052347;28;20209;-55
2022/12/30 04:10:11;;;;;;;6.90;2.00;;;5.30;99.90;;;;;;5051754;28;20227;-53
2022/12/30 04:12:37;;;;;;;5.43;1.27;;;5.40;99.90;;;;;;5052766;28;20258;-50
2022/12/30 04:15:05;;;;;;;7.13;1.93;;;5.30;99.90;;;;;;5052273;28;20209;-56
2022/12/30 04:17:32;;;;;;;13.13;2.23;;;5.30;99.90;;;;;;5052288;28;20210;-56
2022/12/30 04:19:58;;;;;;;6.57;1.57;;;5.30;99.90;;;;;;5052664;28;20225;-53
2022/12/30 04:22:25;;;;;;;9.80;2.20;;;5.30;99.90;;;;;;5052348;28;20643;-57
2022/12/30 04:24:52;;;;;;;10.53;2.23;;;5.30;99.90;;;;;;5052210;28;20689;-48
2022/12/30 04:27:20;;;;;;;14.00;2.03;;;5.30;99.90;;;;;;5052092;28;20208;-49
2022/12/30 04:29:46;;;;;;;7.33;2.57;;;5.30;99.90;;;;;;5052123;28;20283;-51
2022/12/30 04:32:13;;;;;;;18.03;3.10;;;5.40;99.90;;;;;;5052304;28;20236;-54
2022/12/30 04:34:40;;;;;;;11.90;2.17;;;5.40;99.90;;;;;;5052004;28;20671;-53
2022/12/30 04:37:06;;;;;;;9.03;2.10;;;5.30;99.90;;;;;;5051731;28;20679;-53
2022/12/30 04:39:33;;;;;;;13.03;2.57;;;5.30;99.90;;;;;;5051380;28;20236;-50
2022/12/30 04:42:00;;;;;;;11.77;1.93;;;5.30;99.90;;;;;;5051383;28;20208;-56
2022/12/30 04:44:28;;;;;;;14.27;2.30;;;5.30;99.90;;;;;;5051329;28;20208;-51
2022/12/30 04:46:54;;;;;;;10.60;1.63;;;5.30;99.90;;;;;;5050935;28;20208;-49
2022/12/30 04:49:21;;;;;;;16.43;2.17;;;5.40;99.90;;;;;;5051023;28;20279;-51
2022/12/30 04:51:48;;;;;;;13.37;1.97;;;5.30;99.90;;;;;;5050825;28;20251;-48
2022/12/30 04:54:15;;;;;;;16.37;2.33;;;5.30;99.90;;;;;;5051229;28;20212;-51
2022/12/30 04:56:41;;;;;;;10.07;1.90;;;5.20;99.90;;;;;;5050591;28;20204;-51
2022/12/30 04:59:08;;;;;;;11.07;2.70;;;5.20;99.90;;;;;;5068340;28;20228;-55
2022/12/30 05:01:36;;;;;;;6.33;1.60;;;5.20;99.90;;;;;;5070899;28;20262;-48
2022/12/30 05:04:02;;;;;;;10.40;1.80;;;5.20;99.90;;;;;;5070922;28;20269;-51
2022/12/30 05:06:29;;;;;;;10.93;2.70;;;5.10;99.90;;;;;;5070589;28;20206;-51
2022/12/30 05:08:56;;;;;;;8.13;1.80;;;5.10;99.90;;;;;;5070863;28;20234;-51
2022/12/30 05:11:22;;;;;;;6.67;2.10;;;5.10;99.90;;;;;;5070874;28;20224;-54
2022/12/30 05:13:49;;;;;;;7.93;2.50;;;5.10;99.90;;;;;;5070629;28;20214;-56
2022/12/30 05:16:16;;;;;;;12.70;2.20;;;5.10;99.90;;;;;;5070569;28;20592;-53
2022/12/30 05:18:44;;;;;;;13.53;2.17;;;5.00;99.90;;;;;;5070663;28;20228;-54
2022/12/30 05:21:10;;;;;;;11.10;2.23;;;5.10;99.90;;;;;;5070968;28;20222;-56
2022/12/30 05:26:21;;;;;;;10.37;1.90;;;5.00;99.90;;;;;;5065745;28;20209;-53
2022/12/30 05:28:49;;;;;;;11.23;2.67;;;5.00;99.90;;;;;;5059399;28;20272;-52
2022/12/30 05:31:17;;;;;;;9.90;2.03;;;5.00;99.90;;;;;;5053741;28;20709;-51
2022/12/30 05:33:45;;;;;;;13.07;2.03;;;5.00;99.90;;;;;;5054163;28;20204;-51
2022/12/30 05:36:12;;;;;;;10.50;2.97;;;5.00;99.90;;;;;;5053878;28;20618;-52
2022/12/30 05:38:39;;;;;;;14.63;2.60;;;5.00;99.90;;;;;;5018411;28;1020907;-55
2022/12/30 05:41:07;;;;;;;10.57;2.17;;;5.00;99.90;;;;;;5055381;28;20204;-52
2022/12/30 05:43:34;;;;;;;9.63;1.73;;;5.00;99.90;;;;;;5055320;28;20212;-55
2022/12/30 05:46:01;;;;;;;12.57;3.17;;;5.00;99.90;;;;;;5054798;28;20215;-50
2022/12/30 05:48:28;;;;;;;18.87;2.73;;;5.10;99.90;;;;;;5055135;28;20648;-53
2022/12/30 05:50:55;;;;;;;9.80;1.90;;;5.20;99.90;;;;;;5054728;28;20254;-54
2022/12/30 05:53:22;;;;;;;3.77;1.73;;;5.10;99.90;;;;;;5055126;28;20604;-50
2022/12/30 05:55:50;;;;;;;7.90;2.20;;;5.20;99.90;;;;;;5054746;28;20616;-53
2022/12/30 05:58:17;;;;;;;7.57;1.87;;;5.20;99.90;;;;;;5054555;28;20233;-50
2022/12/30 06:00:43;;;;;;;7.53;2.10;;;5.20;99.90;;;;;;5054707;28;20206;-55
2022/12/30 06:03:10;;;;;;;12.07;3.67;;;5.20;99.90;;;;;;5055108;28;20201;-51
2022/12/30 06:05:37;;;;;;;10.57;2.40;;;5.30;99.90;;;;;;5054660;28;20213;-53
2022/12/30 06:08:05;;;;;;;9.63;2.40;;;5.40;99.90;;;;;;5054560;28;20739;-56
2022/12/30 06:10:32;;;;;;;12.67;2.17;;;5.40;99.90;;;;;;5054409;28;20301;-58
2022/12/30 06:12:58;;;;;;;9.37;2.03;;;5.40;99.90;;;;;;5054371;28;20208;-53
2022/12/30 06:15:25;;;;;;;8.67;1.70;;;5.40;99.90;;;;;;5055078;28;20219;-54
2022/12/30 06:17:52;;;;;;;7.20;1.60;;;5.40;99.90;;;;;;5054516;28;20208;-52
2022/12/30 06:20:18;;;;;;;9.63;1.70;;;5.40;99.90;;;;;;5054649;28;20290;-55
2022/12/30 06:22:45;;;;;;;6.70;1.63;;;5.50;99.90;;;;;;5054366;28;20208;-55
2022/12/30 06:25:13;;;;;;;10.77;2.57;;;5.60;99.90;;;;;;5055747;28;20214;-53
2022/12/30 06:27:40;;;;;;;7.13;1.70;;;5.50;99.90;;;;;;5065592;28;20590;-52
2022/12/30 06:30:08;;;;;;;3.27;1.40;;;5.50;99.90;;;;;;5074317;28;20297;-54
2022/12/30 06:32:34;;;;;;;7.93;2.20;;;5.60;99.90;;;;;;5074145;28;20270;-56
2022/12/30 06:35:01;;;;;;;5.83;1.80;;;5.60;99.90;;;;;;5074503;28;20220;-54
2022/12/30 06:37:28;;;;;;;5.17;1.60;;;5.60;99.90;;;;;;5074084;28;20216;-54
2022/12/30 06:39:55;;;;;;;10.63;2.60;;;5.60;99.90;;;;;;5074019;28;20731;-56
2022/12/30 06:42:23;;;;;;;10.77;1.80;;;5.60;99.90;;;;;;5073978;28;20697;-54
2022/12/30 06:44:49;;;;;;;8.43;2.00;;;5.50;99.90;;;;;;5074258;28;20262;-54
2022/12/30 06:47:16;;;;;;;4.20;1.77;;;5.50;99.90;;;;;;5074063;28;20251;-51
2022/12/30 06:49:43;;;;;;;6.10;1.73;;;5.60;99.90;;;;;;5073967;28;20276;-56
2022/12/30 06:52:09;;;;;;;10.13;1.70;;;5.50;99.90;;;;;;5073831;28;20259;-56
2022/12/30 06:54:36;;;;;;;5.90;1.37;;;5.50;99.90;;;;;;5073922;28;20264;-54
2022/12/30 06:57:02;;;;;;;9.47;1.93;;;5.50;99.90;;;;;;5065359;28;20262;-55
2022/12/30 06:59:30;;;;;;;10.13;1.90;;;5.50;99.90;;;;;;5053600;28;20225;-53
2022/12/30 07:01:57;;;;;;;8.13;1.60;;;5.50;99.90;;;;;;5053950;28;20215;-51
2022/12/30 07:04:24;;;;;;;8.50;1.87;;;5.50;99.90;;;;;;5053944;28;20684;-56
2022/12/30 07:06:51;;;;;;;10.87;1.80;;;5.40;99.90;;;;;;5053396;28;20208;-54
2022/12/30 07:09:18;;;;;;;10.37;1.60;;;5.40;99.90;;;;;;5053519;28;20727;-54
2022/12/30 07:11:45;;;;;;;6.23;1.57;;;5.40;99.90;;;;;;5053610;28;20229;-51
2022/12/30 07:14:11;;;;;;;11.40;2.00;;;5.40;99.90;;;;;;5053931;28;20219;-59
2022/12/30 07:16:39;;;;;;;6.27;1.67;;;5.50;99.90;;;;;;5053362;28;20208;-55
2022/12/30 07:19:06;;;;;;;6.43;2.07;;;5.50;99.90;;;;;;5053578;28;20275;-50
2022/12/30 07:21:33;;;;;;;6.23;1.80;;;5.40;99.90;;;;;;5053655;28;20299;-54
2022/12/30 07:24:00;;;;;;;6.67;1.63;;;5.40;99.90;;;;;;5053418;28;20817;-52
2022/12/30 07:26:27;;;;;;;7.67;1.77;;;5.50;99.90;;;;;;5061158;28;20675;-54
2022/12/30 07:28:54;;;;;;;6.27;1.63;;;5.50;99.90;;;;;;5053205;28;20271;-50
2022/12/30 07:31:21;;;;;;;8.83;1.50;;;5.60;99.90;;;;;;5052985;28;20225;-53
2022/12/30 07:33:49;;;;;;;5.47;1.30;;;5.60;99.90;;;;;;5052896;28;20201;-55
2022/12/30 07:36:16;;;;;;;7.57;1.60;;;5.60;99.90;;;;;;5052699;28;20209;-54
2022/12/30 07:38:43;;;;;;;9.33;1.60;;;5.60;99.90;;;;;;5053068;28;20280;-49
2022/12/30 07:41:11;;;;;;;3.73;1.10;;;5.70;99.90;;;;;;5053120;28;20857;-51
2022/12/30 07:43:38;;;;;;;8.07;1.60;;;5.70;99.90;;;;;;5052282;28;20574;-54
2022/12/30 07:46:06;;;;;;;7.43;1.47;;;5.70;99.90;;;;;;5052252;28;20201;-53
2022/12/30 07:48:33;;;;;;;8.07;1.67;;;5.70;99.90;;;;;;5052974;28;20222;-50
2022/12/30 07:51:06;;;;;;;10.27;1.83;;;5.80;99.90;;;;;;5052360;28;20696;-50
2022/12/30 07:53:33;;;;;;;10.23;1.50;;;5.80;99.90;;;;;;5045374;28;20296;-50
2022/12/30 07:56:02;;;;;;;4.37;1.20;;;5.80;99.90;;;;;;5060483;28;20253;-50
2022/12/30 07:58:29;;;;;;;6.33;1.43;;;5.80;99.90;;;;;;5056512;28;20575;-53
2022/12/30 08:00:55;;;;;;;7.80;1.70;;;5.90;99.90;;;;;;5072726;28;20230;-48
2022/12/30 08:03:22;;;;;;;6.43;1.53;;;5.90;99.90;;;;;;5072552;28;20285;-48
2022/12/30 08:05:49;;;;;;;6.03;1.80;;;5.90;99.90;;;;;;5072690;28;20212;-51
2022/12/30 08:08:17;;;;;;;4.27;1.40;;;6.00;99.90;;;;;;5072559;28;20216;-48
2022/12/30 08:10:53;;;;;;;4.30;1.33;;;6.00;99.90;;;;;;5072470;28;20265;-49
2022/12/30 08:13:20;;;;;;;2.27;1.17;;;6.10;99.90;;;;;;5072565;28;20258;-47
2022/12/30 08:15:47;;;;;;;8.73;1.40;;;6.10;99.90;;;;;;5072420;28;20274;-54
2022/12/30 08:18:13;;;;;;;8.70;1.80;;;6.20;99.90;;;;;;5072355;28;20208;-51
2022/12/30 08:20:40;;;;;;;5.33;1.40;;;6.20;99.90;;;;;;5072357;28;20205;-50
2022/12/30 08:23:07;;;;;;;6.07;1.43;;;6.30;99.90;;;;;;5072240;28;20249;-49
2022/12/30 08:25:35;;;;;;;4.17;1.10;;;6.40;99.90;;;;;;5067870;28;20201;-51
2022/12/30 08:28:02;;;;;;;2.53;1.10;;;6.40;99.90;;;;;;5051881;28;20204;-48
2022/12/30 08:30:29;;;;;;;3.00;1.00;;;6.40;99.90;;;;;;5052005;28;20255;-48
2022/12/30 08:32:55;;;;;;;4.60;1.20;;;6.50;99.90;;;;;;5052126;28;20229;-58
2022/12/30 08:35:22;;;;;;;5.53;1.53;;;6.50;99.90;;;;;;5052012;28;20734;-52
2022/12/30 08:37:49;;;;;;;8.33;1.40;;;6.50;99.90;;;;;;5051834;28;20570;-52
2022/12/30 08:40:16;;;;;;;4.83;1.10;;;6.50;99.90;;;;;;5051974;28;20642;-54
2022/12/30 08:42:44;;;;;;;5.30;1.37;;;6.50;99.90;;;;;;5051980;28;20288;-51
2022/12/30 08:45:11;;;;;;;5.57;1.40;;;6.60;99.90;;;;;;5051859;28;20217;-52
2022/12/30 08:47:37;;;;;;;7.47;1.47;;;6.60;99.90;;;;;;5051752;28;20209;-57
2022/12/30 08:50:05;;;;;;;4.73;1.20;;;6.70;99.90;;;;;;5048268;28;20578;-62
2022/12/30 08:52:32;;;;;;;5.33;1.10;;;6.80;96.90;;;;;;5054944;28;20602;-56
2022/12/30 08:54:59;;;;;;;9.43;1.53;;;6.80;96.30;;;;;;5051218;28;20205;-55
2022/12/30 08:57:25;;;;;;;4.07;0.90;;;6.90;95.50;;;;;;5062413;28;20205;-57
2022/12/30 08:59:53;;;;;;;2.90;1.00;;;6.90;92.80;;;;;;5055648;28;20229;-54
2022/12/30 09:02:20;;;;;;;4.03;1.50;;;7.00;91.10;;;;;;5050679;28;20209;-57
2022/12/30 09:04:47;;;;;;;5.20;1.10;;;6.90;90.60;;;;;;5051468;28;20587;-59
2022/12/30 09:07:13;;;;;;;3.27;1.37;;;7.00;82.80;;;;;;5049189;28;20228;-63
2022/12/30 09:09:40;;;;;;;9.93;1.93;;;7.00;89.00;;;;;;5059018;28;20217;-58
2022/12/30 09:12:07;;;;;;;9.30;1.87;;;7.00;88.60;;;;;;5050430;28;20221;-56
2022/12/30 09:14:34;;;;;;;6.47;1.33;;;7.00;83.20;;;;;;5048542;28;20229;-57
2022/12/30 09:17:02;;;;;;;5.70;1.30;;;7.10;82.10;;;;;;5062794;28;20246;-58
2022/12/30 09:19:29;;;;;;;2.97;1.33;;;7.10;82.50;;;;;;5071162;28;20712;-58
2022/12/30 09:21:56;;;;;;;7.70;1.33;;;7.10;76.40;;;;;;5070635;28;20613;-58
2022/12/30 09:24:22;;;;;;;3.63;1.20;;;7.10;84.00;;;;;;5071123;28;20278;-60
2022/12/30 09:26:49;;;;;;;3.93;1.07;;;7.20;66.20;;;;;;5062119;28;20220;-58
2022/12/30 09:29:17;;;;;;;5.40;1.67;;;7.30;54.00;;;;;;5052729;28;20275;-56
2022/12/30 09:31:44;;;;;;;3.27;1.30;;;7.40;45.30;;;;;;5050600;28;20240;-56
2022/12/30 09:34:12;;;;;;;3.90;1.37;;;7.40;49.40;;;;;;5050759;28;20201;-57
2022/12/30 09:36:39;;;;;;;4.83;1.20;;;7.40;56.00;;;;;;5050444;28;20209;-58
2022/12/30 09:39:06;;;;;;;7.37;1.73;;;7.50;49.80;;;;;;5049168;28;20739;-55
2022/12/30 09:44:38;;;;;;;8.57;1.20;;;7.50;41.50;;;;;;5050934;28;20275;-61
2022/12/30 09:47:14;;;;;;;3.67;1.30;;;7.50;38.80;;;;;;5050882;28;20213;-56
2022/12/30 09:49:47;;;;;;;6.50;1.80;;;7.60;32.60;;;;;;5050573;28;20229;-60
2022/12/30 09:52:21;;;;;;;8.93;1.50;;;7.60;31.00;;;;;;5050457;28;20779;-59
2022/12/30 09:54:52;;;;;;;4.30;1.30;;;7.60;35.10;;;;;;5050989;28;20217;-58
2022/12/30 09:57:33;;;;;;;6.23;1.60;;;7.60;37.80;;;;;;5061078;28;20213;-60
2022/12/30 10:00:04;;;;;;;4.97;1.60;;;7.70;23.60;;;;;;5070833;28;20313;-56
2022/12/30 10:02:42;;;;;;;2.03;0.90;;;7.70;29.50;;;;;;5070694;28;20236;-54
2022/12/30 10:05:13;;;;;;;4.50;1.40;;;7.70;30.40;;;;;;5070970;28;20208;-55
2022/12/30 10:07:45;;;;;;;3.43;1.17;;;7.70;18.00;;;;;;5071603;28;20259;-56
2022/12/30 10:10:18;;;;;;;3.97;1.10;;;7.80;13.40;;;;;;5074394;28;20229;-57
2022/12/30 10:12:50;;;;;;;5.73;1.00;;;7.90;12.10;;;;;;5060944;28;20225;-57
2022/12/30 10:15:33;;;;;;;3.63;1.20;;;7.90;8.40;;;;;;5054489;28;20209;-52
2022/12/30 10:18:28;;;;;;;3.63;1.17;;;7.90;10.70;;;;;;5054000;28;20626;-58
2022/12/30 10:21:07;;;;;;;2.03;0.90;;;8.00;8.50;;;;;;5054556;28;20210;-51
2022/12/30 10:23:50;;;;;;;2.33;0.90;;;8.00;12.10;;;;;;5054437;28;20205;-54
2022/12/30 10:26:21;;;;;;;4.60;1.10;;;8.10;9.00;;;;;;5054326;28;20202;-54
2022/12/30 10:28:51;;;;;;;4.30;0.87;;;8.20;8.00;;;;;;5068601;28;20224;-55
2022/12/30 10:31:21;;;;;;;3.80;1.40;;;8.20;2.30;;;;;;5073675;28;20637;-58
2022/12/30 10:33:52;;;;;;;5.77;1.47;;;8.20;1.90;;;;;;5074507;28;20814;-52
2022/12/30 10:36:24;;;;;;;6.07;1.10;;;8.30;1.00;;;;;;5073576;28;20586;-56
2022/12/30 10:38:57;;;;;;;2.60;1.10;;;8.40;1.00;;;;;;5072413;28;20257;-54
2022/12/30 10:41:36;;;;;;;6.27;1.30;;;8.40;1.00;;;;;;5062323;28;20203;-56
2022/12/30 10:44:15;;;;;;;5.83;1.13;;;8.40;1.00;;;;;;5053694;28;20210;-56
2022/12/30 10:47:03;;;;;;;1.50;1.13;;;8.50;1.00;;;;;;5053655;28;20206;-51
2022/12/30 10:49:52;;;;;;;1.83;1.10;;;8.60;1.00;;;;;;5053845;28;20572;-55
2022/12/30 10:52:21;;;;;;;2.63;1.03;;;8.70;1.00;;;;;;5053094;28;20596;-58
2022/12/30 10:54:48;;;;;;;3.87;1.33;;;8.80;1.00;;;;;;5053837;28;20277;-56
2022/12/30 10:57:18;;;;;;;6.38;1.48;;;8.80;1.00;;;;;;5062343;28;20471;-59
2022/12/30 10:59:46;;;;;;;7.18;1.33;;;8.80;1.00;;;;;;5072043;28;20473;-60
2022/12/30 11:02:17;;;;;;;4.97;1.87;;;8.90;1.00;;;;;;5057288;28;20409;-60
2022/12/30 11:04:44;;;;;;;4.93;1.42;;;8.90;1.00;;;;;;5051963;28;20420;-50
2022/12/30 11:07:13;;;;;;;5.25;1.40;;;8.90;1.00;;;;;;5052181;28;20862;-57
2022/12/30 11:09:42;;;;;;;3.30;1.50;;;8.80;1.00;;;;;;5053189;28;20238;-58
2022/12/30 11:15:11;;;;;;;3.03;1.43;;;8.80;1.00;;;;;;5052903;28;20211;-54
2022/12/30 11:17:45;;;;;;;6.70;1.60;;;8.80;1.00;;;;;;5053082;28;20219;-56
2022/12/30 11:20:21;;;;;;;;;;;8.80;1.00;;;;;;5052080;28;20049;-58
2022/12/30 11:22:50;;;;;;;7.27;1.90;;;8.80;1.00;;;;;;5047320;28;20422;-55
2022/12/30 11:25:24;;;;;;;4.30;1.70;;;8.70;1.00;;;;;;5054783;28;20452;-52
2022/12/30 11:27:54;;;;;;;3.67;1.40;;;8.70;1.00;;;;;;5063852;28;20212;-56
2022/12/30 11:30:26;;;;;;;5.43;1.40;;;8.70;1.00;;;;;;5072585;28;20280;-54
2022/12/30 11:32:55;;;;;;;3.53;1.73;;;8.70;1.00;;;;;;5057174;28;20216;-51
2022/12/30 11:35:37;;;;;;;2.67;1.33;;;8.70;1.00;;;;;;5052617;28;20571;-58
2022/12/30 11:38:07;;;;;;;5.43;1.60;;;8.70;1.00;;;;;;5051167;28;20219;-56
2022/12/30 11:40:37;;;;;;;2.97;1.50;;;8.70;1.00;;;;;;5052070;28;20932;-53
2022/12/30 11:43:13;;;;;;;3.03;1.50;;;8.70;1.00;;;;;;5052337;28;20208;-60
2022/12/30 11:45:56;;;;;;;6.03;1.67;;;8.70;1.00;;;;;;5052043;28;20211;-59
2022/12/30 11:48:31;;;;;;;10.53;2.13;;;8.60;1.00;;;;;;5052273;28;20209;-57
2022/12/30 11:51:00;;;;;;;3.97;1.40;;;8.60;1.00;;;;;;5053296;28;20418;-52
2022/12/30 11:53:31;;;;;;;3.20;1.67;;;8.60;1.00;;;;;;5054129;28;20229;-49
2022/12/30 11:56:00;;;;;;;3.50;1.10;;;8.60;1.00;;;;;;5052123;28;20226;-55
2022/12/30 11:58:27;;;;;;;3.70;1.40;;;8.60;1.00;;;;;;5043953;28;20305;-55
2022/12/30 12:01:01;;;;;;;1.97;1.10;;;8.60;1.00;;;;;;5051522;28;20199;-54
2022/12/30 12:03:29;;;;;;;4.33;1.87;;;8.60;1.00;;;;;;5051964;28;20196;-55
2022/12/30 12:06:09;;;;;;;5.03;1.70;;;8.60;1.00;;;;;;5051675;28;20285;-52
2022/12/30 12:08:43;;;;;;;3.90;1.23;;;8.50;1.00;;;;;;5051795;28;20256;-49
2022/12/30 12:11:16;;;;;;;3.70;1.20;;;8.50;1.00;;;;;;5051705;28;20296;-54
2022/12/30 12:13:52;;;;;;;2.13;1.13;;;8.60;1.00;;;;;;5051459;28;20713;-52
2022/12/30 12:16:31;;;;;;;6.20;1.83;;;8.60;1.00;;;;;;5051757;28;20301;-53
2022/12/30 12:19:07;;;;;;;2.83;1.50;;;8.50;1.00;;;;;;5051650;28;20234;-51
2022/12/30 12:21:38;;;;;;;3.33;1.30;;;8.50;1.00;;;;;;5051543;28;20646;-50
2022/12/30 12:24:13;;;;;;;4.70;1.50;;;8.60;1.00;;;;;;5051603;28;20610;-56
2022/12/30 12:26:45;;;;;;;6.15;1.85;;;8.60;1.00;;;;;;5058374;28;20448;-54
2022/12/30 12:29:13;;;;;;;6.23;1.87;;;8.60;1.00;;;;;;5051571;28;20256;-55
2022/12/30 12:31:54;;;;;;;6.57;1.87;;;8.60;1.00;;;;;;5048180;28;20584;-49
2022/12/30 12:34:34;;;;;;;2.67;1.33;;;8.60;1.00;;;;;;5051721;28;20708;-50
2022/12/30 12:37:15;;;;;;;8.10;1.50;;;8.60;1.00;;;;;;5051349;28;20294;-51
2022/12/30 12:39:55;;;;;;;1.83;1.17;;;8.60;1.00;;;;;;5051663;28;20686;-51
2022/12/30 12:42:29;;;;;;;4.73;1.43;;;8.60;1.00;;;;;;5051717;28;20289;-49
2022/12/30 12:45:22;;;;;;;3.93;1.47;;;8.60;1.00;;;;;;5051955;28;20052;-49
2022/12/30 12:48:00;;;;;;;4.45;1.60;;;8.60;1.00;;;;;;5015595;28;20429;-50
2022/12/30 12:50:40;;;;;;;3.53;1.13;;;8.60;1.00;;;;;;5051600;28;20228;-54
2022/12/30 12:53:23;;;;;;;5.80;1.55;;;8.60;1.00;;;;;;5048161;28;20421;-51
2022/12/30 12:56:27;;;;;;;6.45;1.70;;;8.60;1.00;;;;;;5056082;28;20416;-55
2022/12/30 12:59:08;;;;;;;4.50;1.27;;;8.70;1.00;;;;;;5061061;28;20484;-54
2022/12/30 13:01:45;;;;;;;3.42;1.20;;;8.80;1.00;;;;;;5070298;28;20415;-54
2022/12/30 13:04:24;;;;;;;4.18;1.25;;;8.90;1.00;;;;;;5070499;28;20494;-52
2022/12/30 13:07:04;;;;;;;4.47;1.65;;;8.90;1.00;;;;;;5070208;28;20407;-53
2022/12/30 13:09:54;;;;;;;4.22;1.40;;;8.90;1.00;;;;;;5070742;28;20419;-57
2022/12/30 13:12:29;;;;;;;4.28;1.13;;;9.00;1.00;;;;;;5070683;28;20415;-52
2022/12/30 13:15:01;;;;;;;6.35;1.70;;;9.00;1.00;;;;;;5070690;28;20415;-55
2022/12/30 13:17:33;;;;;;;4.28;1.55;;;9.00;1.00;;;;;;5070236;28;20415;-50
2022/12/30 13:20:08;;;;;;;3.97;1.30;;;9.10;1.00;;;;;;5070211;28;20408;-53
2022/12/30 13:22:36;;;;;;;2.90;1.37;;;9.10;1.00;;;;;;5053079;28;20220;-56
2022/12/30 13:25:06;;;;;;;7.03;1.50;;;9.20;1.00;;;;;;5047963;28;20208;-58
2022/12/30 13:27:33;;;;;;;3.57;1.23;;;9.20;1.00;;;;;;5047124;28;20247;-60
2022/12/30 13:30:03;;;;;;;2.73;1.07;;;9.20;1.00;;;;;;5062751;28;20228;-57
2022/12/30 13:32:38;;;;;;;4.20;1.20;;;9.20;1.00;;;;;;5029899;28;20746;-53
2022/12/30 13:35:35;;;;;;;2.77;1.33;;;9.20;1.00;;;;;;5031344;28;20306;-58
2022/12/30 13:38:05;;;;;;;;;;;9.20;1.00;;;;;;5031041;28;20549;-57
2022/12/30 13:40:36;;;;;;;;;;;9.10;1.00;;;;;;5031473;28;19921;-61
2022/12/30 13:43:11;;;;;;;;;;;9.00;21.90;;;;;;5032949;28;20379;-55
2022/12/30 13:45:45;;;;;;;2.67;1.37;;;8.90;67.60;;;;;;5034335;28;20275;-61
2022/12/30 13:48:15;;;;;;;3.17;1.30;;;8.60;99.90;;;;;;5034373;28;20637;-56
2022/12/30 13:50:44;;;;;;;3.27;1.10;;;8.60;99.90;;;;;;5032706;28;20290;-57
2022/12/30 13:53:31;;;;;;;2.57;1.20;;;8.40;99.90;;;;;;5053688;28;20227;-54
2022/12/30 13:55:58;;;;;;;5.40;1.40;;;8.40;99.90;;;;;;5054340;28;20198;-56
2022/12/30 13:58:29;;;;;;;3.57;1.40;;;8.30;99.90;;;;;;5062959;28;20207;-65
2022/12/30 14:01:25;;;;;;;3.13;1.33;;;8.20;99.90;;;;;;5054853;28;20203;-61
2022/12/30 14:04:12;;;;;;;5.33;1.73;;;8.20;99.90;;;;;;5054301;28;20197;-55
2022/12/30 14:06:45;;;;;;;3.83;1.23;;;8.10;99.90;;;;;;5053135;28;20207;-60
2022/12/30 14:09:18;;;;;;;5.97;1.33;;;8.00;99.90;;;;;;5063912;28;20655;-63
2022/12/30 14:12:28;;;;;;;5.27;1.17;;;8.00;99.90;;;;;;5061334;28;20209;-57
2022/12/30 14:14:58;;;;;;;4.40;1.07;;;7.90;99.90;;;;;;5023541;28;20236;-58